createdAt,value
2018-02-08T00:01:45.284Z,35.53
2018-02-08T00:04:13.707Z,34.07
2018-02-08T00:06:41.262Z,33.23
2018-02-08T00:09:08.813Z,33.93
2018-02-08T00:11:37.113Z,35.30
2018-02-08T00:14:04.636Z,33.83
2018-02-08T00:16:32.280Z,36.03
2018-02-08T00:18:59.812Z,35.63
2018-02-08T00:21:28.116Z,33.90
2018-02-08T00:23:55.652Z,34.07
2018-02-08T00:26:23.968Z,38.30
2018-02-08T00:28:51.535Z,33.80
2018-02-08T00:31:19.064Z,35.03
2018-02-08T00:33:47.353Z,34.17
2018-02-08T00:36:14.894Z,35.60
2018-02-08T00:38:43.194Z,39.07
2018-02-08T00:41:10.737Z,36.60
2018-02-08T00:43:39.079Z,35.33
2018-02-08T00:46:06.609Z,34.33
2018-02-08T00:48:34.166Z,37.03
2018-02-08T00:51:01.704Z,35.87
2018-02-08T00:53:29.335Z,33.87
2018-02-08T00:55:57.657Z,35.03
2018-02-08T00:58:25.184Z,37.57
2018-02-08T01:00:53.529Z,38.83
2018-02-08T01:03:21.057Z,36.00
2018-02-08T01:05:48.587Z,33.43
2018-02-08T01:08:16.892Z,34.40
2018-02-08T01:10:44.391Z,35.27
2018-02-08T01:13:11.894Z,36.60
2018-02-08T01:15:39.387Z,33.13
2018-02-08T01:18:06.895Z,33.23
2018-02-08T01:20:35.151Z,40.53
2018-02-08T01:23:02.648Z,39.03
2018-02-08T01:25:30.153Z,32.60
2018-02-08T01:27:57.664Z,35.60
2018-02-08T01:30:25.159Z,36.97
2018-02-08T01:32:52.662Z,36.13
2018-02-08T01:35:20.910Z,35.40
2018-02-08T01:37:48.507Z,36.80
2018-02-08T01:40:15.995Z,37.97
2018-02-08T01:42:43.488Z,38.97
2018-02-08T01:45:11.007Z,33.63
2018-02-08T01:47:38.495Z,36.33
2018-02-08T01:50:05.982Z,38.27
2018-02-08T01:52:34.247Z,36.73
2018-02-08T01:55:01.731Z,35.53
2018-02-08T01:57:29.222Z,35.13
2018-02-08T01:59:56.729Z,33.60
2018-02-08T02:02:24.982Z,33.90
2018-02-08T02:04:52.483Z,38.43
2018-02-08T02:07:19.971Z,37.60
2018-02-08T02:09:47.479Z,40.10
2018-02-08T02:12:14.983Z,39.83
2018-02-08T02:14:42.491Z,36.73
2018-02-08T02:17:10.751Z,38.77
2018-02-08T02:19:38.247Z,37.67
2018-02-08T02:22:05.738Z,36.53
2018-02-08T02:24:33.221Z,38.97
2018-02-08T02:27:00.728Z,37.47
2018-02-08T02:29:28.219Z,34.30
2018-02-08T02:31:56.482Z,36.80
2018-02-08T02:34:24.020Z,36.90
2018-02-08T02:36:51.507Z,38.90
2018-02-08T02:39:19.003Z,39.20
2018-02-08T02:41:47.270Z,35.57
2018-02-08T02:44:14.754Z,35.03
2018-02-08T02:46:42.238Z,32.70
2018-02-08T02:49:09.785Z,33.60
2018-02-08T02:51:37.278Z,34.67
2018-02-08T02:54:04.764Z,36.17
2018-02-08T02:56:33.026Z,37.13
2018-02-08T02:59:01.306Z,38.27
2018-02-08T03:01:29.573Z,36.97
2018-02-08T03:03:57.076Z,34.83
2018-02-08T03:06:24.566Z,31.73
2018-02-08T03:08:52.058Z,33.53
2018-02-08T03:11:20.323Z,34.13
2018-02-08T03:13:47.811Z,32.70
2018-02-08T03:16:15.315Z,32.10
2018-02-08T03:18:43.604Z,30.87
2018-02-08T03:21:11.096Z,32.57
2018-02-08T03:23:39.351Z,32.07
2018-02-08T03:26:06.950Z,33.70
2018-02-08T03:28:34.447Z,30.90
2018-02-08T03:31:01.940Z,33.17
2018-02-08T03:33:30.223Z,31.23
2018-02-08T03:35:57.722Z,32.63
2018-02-08T03:38:25.220Z,33.13
2018-02-08T03:40:52.706Z,34.80
2018-02-08T03:43:20.239Z,32.67
2018-02-08T03:45:47.726Z,33.30
2018-02-08T03:48:15.218Z,34.07
2018-02-08T03:50:42.719Z,35.30
2018-02-08T03:53:11.005Z,32.57
2018-02-08T03:55:39.362Z,32.83
2018-02-08T03:58:06.850Z,31.93
2018-02-08T04:00:34.352Z,33.27
2018-02-08T04:03:01.846Z,34.00
2018-02-08T04:05:30.110Z,33.80
2018-02-08T04:07:57.594Z,33.53
2018-02-08T04:10:25.873Z,32.50
2018-02-08T04:12:54.148Z,36.47
2018-02-08T04:15:22.414Z,38.13
2018-02-08T04:17:50.666Z,35.67
2018-02-08T04:20:18.166Z,34.07
2018-02-08T04:22:45.671Z,34.97
2018-02-08T04:25:13.163Z,35.70
2018-02-08T04:27:41.432Z,36.20
2018-02-08T04:30:08.950Z,36.70
2018-02-08T04:32:36.448Z,35.47
2018-02-08T04:35:03.931Z,36.60
2018-02-08T04:37:31.435Z,35.73
2018-02-08T04:40:10.732Z,36.40
2018-02-08T04:42:50.174Z,38.03
2018-02-08T04:45:29.507Z,38.23
2018-02-08T04:47:57.958Z,39.33
2018-02-08T04:50:26.213Z,38.77
2018-02-08T04:52:54.166Z,38.97
2018-02-08T04:55:21.664Z,37.40
2018-02-08T04:57:49.930Z,37.33
2018-02-08T05:00:17.428Z,38.17
2018-02-08T05:02:44.923Z,37.27
2018-02-08T05:05:13.181Z,36.90
2018-02-08T05:07:40.685Z,39.33
2018-02-08T05:10:08.171Z,39.43
2018-02-08T05:12:35.676Z,41.23
2018-02-08T05:15:03.196Z,36.70
2018-02-08T05:17:30.683Z,37.70
2018-02-08T05:19:58.191Z,37.87
2018-02-08T05:22:26.467Z,39.77
2018-02-08T05:24:54.727Z,38.30
2018-02-08T05:27:23.011Z,38.07
2018-02-08T05:29:51.283Z,41.77
2018-02-08T05:32:19.540Z,39.60
2018-02-08T05:34:47.032Z,40.90
2018-02-08T05:37:14.541Z,38.47
2018-02-08T05:39:42.027Z,42.97
2018-02-08T05:42:09.515Z,42.33
2018-02-08T05:44:37.026Z,41.97
2018-02-08T05:47:04.510Z,42.37
2018-02-08T05:49:32.763Z,44.13
2018-02-08T05:52:00.258Z,44.97
2018-02-08T05:54:27.766Z,41.30
2018-02-08T05:56:55.254Z,42.37
2018-02-08T05:59:23.523Z,42.27
2018-02-08T06:01:51.790Z,44.97
2018-02-08T06:04:19.286Z,44.27
2018-02-08T06:06:46.781Z,42.90
2018-02-08T06:09:14.279Z,47.80
2018-02-08T06:11:42.642Z,44.23
2018-02-08T06:14:10.122Z,44.17
2018-02-08T06:16:38.420Z,43.77
2018-02-08T06:19:05.886Z,42.40
2018-02-08T06:21:33.384Z,46.93
2018-02-08T06:24:00.895Z,43.90
2018-02-08T06:26:28.382Z,45.60
2018-02-08T06:28:55.870Z,47.17
2018-02-08T06:31:24.250Z,48.83
2018-02-08T06:33:51.740Z,44.57
2018-02-08T06:36:19.227Z,45.93
2018-02-08T06:38:46.728Z,45.33
2018-02-08T06:41:14.983Z,43.43
2018-02-08T06:43:42.484Z,45.27
2018-02-08T06:46:09.991Z,48.13
2018-02-08T06:48:38.248Z,45.10
2018-02-08T06:51:05.847Z,43.63
2018-02-08T06:53:33.339Z,47.63
2018-02-08T06:56:00.832Z,46.73
2018-02-08T06:58:28.338Z,43.90
2018-02-08T07:00:56.607Z,44.33
2018-02-08T07:03:24.886Z,41.90
2018-02-08T07:05:53.147Z,47.33
2018-02-08T07:08:20.638Z,45.37
2018-02-08T07:10:48.144Z,44.17
2018-02-08T07:13:15.643Z,44.40
2018-02-08T07:15:43.922Z,45.20
2018-02-08T07:18:12.187Z,42.67
2018-02-08T07:20:40.451Z,43.67
2018-02-08T07:23:07.984Z,43.00
2018-02-08T07:25:35.462Z,43.67
2018-02-08T07:28:02.947Z,43.10
2018-02-08T07:30:31.202Z,42.27
2018-02-08T07:32:58.699Z,42.10
2018-02-08T07:35:26.199Z,44.00
2018-02-08T07:37:53.698Z,43.43
2018-02-08T07:40:21.955Z,44.07
2018-02-08T07:42:49.466Z,45.30
2018-02-08T07:45:16.971Z,41.17
2018-02-08T07:47:44.468Z,44.03
2018-02-08T07:50:11.990Z,44.93
2018-02-08T07:52:40.258Z,43.23
2018-02-08T07:55:07.743Z,42.07
2018-02-08T07:57:35.246Z,43.57
2018-02-08T08:00:02.805Z,42.63
2018-02-08T08:02:30.590Z,39.77
2018-02-08T08:04:58.095Z,42.90
2018-02-08T08:07:25.650Z,41.77
2018-02-08T08:09:53.163Z,38.87
2018-02-08T08:12:20.671Z,41.37
2018-02-08T08:14:48.163Z,40.27
2018-02-08T08:17:16.434Z,41.53
2018-02-08T08:19:44.014Z,41.60
2018-02-08T08:22:11.515Z,40.97
2018-02-08T08:24:39.011Z,39.33
2018-02-08T08:27:06.502Z,39.93
2018-02-08T08:29:34.000Z,43.00
2018-02-08T08:32:01.492Z,38.20
2018-02-08T08:34:29.016Z,39.97
2018-02-08T08:36:56.514Z,39.63
2018-02-08T08:39:24.022Z,38.90
2018-02-08T08:41:51.506Z,40.63
2018-02-08T08:44:19.069Z,38.30
2018-02-08T08:46:46.582Z,42.47
2018-02-08T08:49:14.846Z,41.07
2018-02-08T08:51:42.347Z,36.87
2018-02-08T08:54:09.974Z,40.17
2018-02-08T08:56:37.635Z,36.63
2018-02-08T08:59:05.124Z,41.23
2018-02-08T09:01:32.639Z,42.47
2018-02-08T09:04:00.126Z,38.60
2018-02-08T09:06:28.375Z,41.33
2018-02-08T09:08:56.667Z,46.07
2018-02-08T09:11:24.919Z,37.40
2018-02-08T09:13:52.443Z,39.17
2018-02-08T09:16:19.942Z,42.93
2018-02-08T09:18:47.442Z,40.80
2018-02-08T09:21:15.067Z,40.30
2018-02-08T09:23:42.565Z,42.13
2018-02-08T09:26:10.050Z,44.20
2018-02-08T09:28:37.555Z,43.50
2018-02-08T09:31:05.806Z,45.43
2018-02-08T09:33:33.299Z,41.40
2018-02-08T09:36:00.798Z,43.30
2018-02-08T09:38:28.481Z,42.10
2018-02-08T09:40:55.968Z,46.53
2018-02-08T09:43:24.454Z,42.60
2018-02-08T09:45:52.900Z,42.33
2018-02-08T09:48:20.390Z,50.07
2018-02-08T09:50:48.660Z,42.60
2018-02-08T09:53:16.910Z,44.17
2018-02-08T09:55:44.505Z,37.43
2018-02-08T09:58:12.166Z,42.47
2018-02-08T10:00:40.420Z,36.17
2018-02-08T10:03:07.917Z,36.57
2018-02-08T10:05:35.406Z,35.60
2018-02-08T10:08:02.902Z,34.53
2018-02-08T10:10:31.276Z,37.57
2018-02-08T10:12:59.581Z,39.57
2018-02-08T10:15:27.101Z,35.67
2018-02-08T10:17:55.375Z,39.80
2018-02-08T10:20:22.866Z,34.80
2018-02-08T10:22:50.512Z,34.73
2018-02-08T10:25:17.970Z,35.07
2018-02-08T10:27:46.335Z,32.63
2018-02-08T10:30:13.862Z,39.70
2018-02-08T10:32:41.343Z,38.97
2018-02-08T10:35:08.873Z,43.13
2018-02-08T10:37:36.362Z,38.40
2018-02-08T10:40:03.871Z,38.87
2018-02-08T10:42:31.380Z,66.77
2018-02-08T10:44:58.858Z,44.13
2018-02-08T10:47:27.115Z,35.97
2018-02-08T10:49:54.650Z,37.30
2018-02-08T10:52:22.202Z,41.27
2018-02-08T10:54:49.896Z,40.07
2018-02-08T10:57:18.173Z,37.33
2018-02-08T10:59:46.870Z,38.70
2018-02-08T11:02:15.135Z,36.83
2018-02-08T11:04:43.416Z,35.47
2018-02-08T11:07:11.678Z,37.37
2018-02-08T11:09:39.194Z,35.93
2018-02-08T11:12:06.730Z,37.53
2018-02-08T11:14:34.280Z,34.80
2018-02-08T11:17:01.783Z,35.30
2018-02-08T11:19:29.275Z,37.27
2018-02-08T11:21:56.780Z,38.03
2018-02-08T11:24:24.278Z,42.87
2018-02-08T11:26:51.782Z,41.67
2018-02-08T11:29:19.287Z,42.50
2018-02-08T11:31:46.786Z,43.50
2018-02-08T11:34:15.243Z,42.73
2018-02-08T11:36:42.861Z,39.23
2018-02-08T11:39:10.587Z,44.07
2018-02-08T11:41:38.889Z,42.80
2018-02-08T11:44:06.527Z,39.77
2018-02-08T11:46:34.015Z,42.30
2018-02-08T11:49:01.586Z,40.77
2018-02-08T11:51:29.087Z,42.50
2018-02-08T11:53:57.371Z,41.70
2018-02-08T11:56:25.622Z,39.73
2018-02-08T11:58:53.111Z,38.43
2018-02-08T12:01:21.362Z,38.57
2018-02-08T12:03:48.863Z,42.77
2018-02-08T12:06:16.355Z,41.73
2018-02-08T12:08:44.610Z,41.70
2018-02-08T12:11:12.214Z,36.90
2018-02-08T12:13:39.690Z,40.23
2018-02-08T12:16:07.939Z,40.57
2018-02-08T12:18:35.440Z,42.60
2018-02-08T12:21:02.994Z,42.80
2018-02-08T12:23:30.480Z,40.33
2018-02-08T12:25:58.011Z,36.60
2018-02-08T12:28:26.243Z,40.47
2018-02-08T12:30:53.731Z,31.63
2018-02-08T12:33:22.007Z,37.90
2018-02-08T12:35:50.267Z,44.63
2018-02-08T12:38:17.766Z,35.77
2018-02-08T12:40:45.263Z,33.90
2018-02-08T12:43:12.757Z,36.30
2018-02-08T12:45:40.272Z,34.43
2018-02-08T12:48:07.756Z,32.10
2018-02-08T12:50:35.259Z,33.47
2018-02-08T12:53:02.776Z,36.67
2018-02-08T12:55:30.260Z,41.43
2018-02-08T12:57:57.750Z,37.93
2018-02-08T13:00:25.231Z,36.90
2018-02-08T13:02:52.742Z,36.27
2018-02-08T13:05:20.226Z,50.20
2018-02-08T13:07:47.820Z,36.30
2018-02-08T13:10:16.157Z,36.73
2018-02-08T13:12:43.711Z,38.10
2018-02-08T13:15:11.366Z,39.90
2018-02-08T13:17:38.916Z,40.67
2018-02-08T13:20:06.440Z,39.47
2018-02-08T13:22:35.074Z,41.17
2018-02-08T13:25:02.754Z,40.67
2018-02-08T13:27:30.260Z,43.20
2018-02-08T13:29:58.594Z,40.53
2018-02-08T13:32:26.175Z,43.53
2018-02-08T13:34:54.811Z,40.00
2018-02-08T13:37:22.360Z,42.40
2018-02-08T13:39:52.907Z,44.60
2018-02-08T13:42:20.394Z,47.07
2018-02-08T13:44:48.027Z,41.93
2018-02-08T13:47:21.185Z,43.73
2018-02-08T13:50:01.504Z,42.27
2018-02-08T13:52:34.611Z,43.00
2018-02-08T13:55:08.728Z,50.77
2018-02-08T13:57:39.161Z,40.93
2018-02-08T14:00:12.464Z,38.87
2018-02-08T14:02:40.007Z,39.57
2018-02-08T14:05:07.630Z,39.97
2018-02-08T14:07:35.216Z,38.03
2018-02-08T14:10:03.515Z,42.33
2018-02-08T14:12:31.022Z,40.87
2018-02-08T14:14:58.601Z,39.43
2018-02-08T14:17:26.224Z,37.50
2018-02-08T14:19:53.763Z,39.73
2018-02-08T14:22:21.346Z,40.70
2018-02-08T14:24:48.879Z,39.97
2018-02-08T14:27:16.683Z,41.63
2018-02-08T14:29:44.179Z,42.40
2018-02-08T14:32:12.440Z,41.10
2018-02-08T14:34:39.923Z,39.60
2018-02-08T14:37:07.427Z,40.43
2018-02-08T14:39:34.903Z,41.30
2018-02-08T14:42:02.401Z,41.73
2018-02-08T14:44:30.032Z,41.93
2018-02-08T14:46:58.291Z,40.47
2018-02-08T14:49:25.778Z,40.20
2018-02-08T14:51:54.034Z,40.60
2018-02-08T14:54:21.525Z,42.83
2018-02-08T14:56:49.784Z,41.77
2018-02-08T14:59:18.048Z,42.90
2018-02-08T15:01:46.323Z,38.87
2018-02-08T15:04:13.823Z,41.37
2018-02-08T15:06:41.310Z,43.60
2018-02-08T15:09:08.815Z,52.63
2018-02-08T15:11:37.070Z,44.87
2018-02-08T15:14:04.568Z,42.57
2018-02-08T15:16:32.093Z,44.23
2018-02-08T15:19:00.369Z,41.23
2018-02-08T15:21:28.648Z,41.03
2018-02-08T15:23:56.940Z,42.20
2018-02-08T15:26:24.433Z,42.07
2018-02-08T15:28:51.942Z,42.63
2018-02-08T15:31:20.219Z,42.80
2018-02-08T15:33:47.714Z,44.00
2018-02-08T15:36:15.243Z,42.80
2018-02-08T15:38:43.501Z,47.27
2018-02-08T15:41:11.029Z,46.03
2018-02-08T15:43:38.581Z,46.10
2018-02-08T15:46:06.092Z,46.43
2018-02-08T15:48:33.710Z,47.57
2018-02-08T15:51:01.199Z,50.07
2018-02-08T15:53:29.780Z,48.60
2018-02-08T15:55:57.298Z,50.47
2018-02-08T15:58:24.799Z,51.20
2018-02-08T16:00:52.289Z,49.90
2018-02-08T16:03:19.803Z,49.20
2018-02-08T16:05:48.074Z,50.27
2018-02-08T16:08:15.570Z,49.27
2018-02-08T16:10:43.067Z,53.73
2018-02-08T16:13:10.595Z,47.23
2018-02-08T16:15:38.119Z,49.80
2018-02-08T16:18:06.502Z,50.27
2018-02-08T16:20:34.787Z,51.10
2018-02-08T16:23:02.279Z,53.27
2018-02-08T16:25:29.791Z,53.20
2018-02-08T16:27:58.069Z,53.90
2018-02-08T16:30:26.333Z,52.50
2018-02-08T16:32:54.700Z,51.87
2018-02-08T16:35:22.211Z,55.10
2018-02-08T16:37:49.718Z,53.40
2018-02-08T16:40:17.227Z,56.30
2018-02-08T16:42:44.746Z,59.23
2018-02-08T16:45:12.243Z,57.43
2018-02-08T16:47:39.762Z,55.53
2018-02-08T16:50:07.367Z,56.13
2018-02-08T16:52:34.874Z,55.43
2018-02-08T16:55:02.379Z,54.13
2018-02-08T16:57:30.182Z,59.47
2018-02-08T16:59:57.667Z,52.97
2018-02-08T17:02:26.065Z,57.17
2018-02-08T17:04:53.592Z,57.00
2018-02-08T17:07:21.115Z,58.50
2018-02-08T17:09:48.730Z,56.53
2018-02-08T17:12:16.984Z,58.63
2018-02-08T17:14:44.498Z,56.90
2018-02-08T17:17:12.123Z,148.27
2018-02-08T17:19:40.378Z,54.50
2018-02-08T17:22:07.912Z,55.17
2018-02-08T17:24:35.449Z,58.87
2018-02-08T17:27:02.946Z,55.73
2018-02-08T17:29:30.515Z,58.00
2018-02-08T17:31:58.856Z,57.90
2018-02-08T17:34:26.328Z,58.53
2018-02-08T17:36:53.864Z,58.37
2018-02-08T17:39:21.382Z,59.67
2018-02-08T17:41:49.655Z,57.33
2018-02-08T17:44:20.387Z,59.00
2018-02-08T17:46:48.647Z,59.30
2018-02-08T17:49:16.923Z,60.97
2018-02-08T17:51:44.468Z,59.03
2018-02-08T17:54:11.968Z,57.23
2018-02-08T17:56:39.492Z,61.93
2018-02-08T17:59:07.039Z,62.07
2018-02-08T18:01:34.558Z,57.80
2018-02-08T18:04:02.086Z,58.93
2018-02-08T18:06:30.388Z,64.20
2018-02-08T18:08:57.891Z,59.93
2018-02-08T18:11:25.405Z,59.10
2018-02-08T18:13:52.979Z,58.50
2018-02-08T18:16:20.515Z,63.03
2018-02-08T18:18:48.033Z,58.97
2018-02-08T18:21:15.557Z,57.07
2018-02-08T18:23:43.104Z,58.37
2018-02-08T18:26:10.642Z,57.67
2018-02-08T18:28:38.154Z,62.27
2018-02-08T18:31:05.675Z,56.63
2018-02-08T18:33:33.295Z,61.63
2018-02-08T18:36:01.618Z,61.30
2018-02-08T18:38:29.184Z,61.67
2018-02-08T18:40:56.803Z,61.93
2018-02-08T18:43:25.086Z,62.33
2018-02-08T18:45:52.598Z,60.83
2018-02-08T18:48:20.108Z,59.80
2018-02-08T18:50:47.624Z,56.13
2018-02-08T18:53:15.260Z,60.03
2018-02-08T18:55:42.775Z,62.73
2018-02-08T18:58:11.063Z,62.37
2018-02-08T19:00:38.598Z,63.47
2018-02-08T19:03:07.748Z,64.07
2018-02-08T19:05:35.315Z,60.47
2018-02-08T19:08:03.694Z,62.93
2018-02-08T19:10:31.198Z,59.47
2018-02-08T19:12:59.476Z,59.80
2018-02-08T19:15:27.861Z,63.03
2018-02-08T19:17:56.129Z,64.13
2018-02-08T19:20:24.447Z,64.87
2018-02-08T19:22:51.962Z,66.57
2018-02-08T19:25:20.270Z,62.97
2018-02-08T19:27:47.774Z,65.43
2018-02-08T19:30:15.315Z,66.13
2018-02-08T19:32:42.846Z,68.07
2018-02-08T19:35:10.347Z,65.83
2018-02-08T19:37:37.885Z,59.87
2018-02-08T19:40:05.390Z,63.47
2018-02-08T19:42:33.658Z,68.40
2018-02-08T19:45:01.974Z,59.80
2018-02-08T19:47:29.478Z,63.20
2018-02-08T19:49:57.002Z,64.13
2018-02-08T19:52:24.587Z,62.67
2018-02-08T19:54:52.363Z,66.40
2018-02-08T19:57:19.871Z,62.23
2018-02-08T19:59:47.390Z,63.20
2018-02-08T20:02:15.796Z,62.70
2018-02-08T20:04:43.320Z,63.67
2018-02-08T20:07:10.840Z,64.93
2018-02-08T20:09:38.383Z,63.83
2018-02-08T20:12:05.934Z,60.27
2018-02-08T20:17:34.707Z,69.53
2018-02-08T20:20:02.296Z,68.30
2018-02-08T20:22:29.890Z,67.70
2018-02-08T20:24:57.496Z,65.07
2018-02-08T20:27:25.186Z,61.47
2018-02-08T20:29:53.728Z,61.03
2018-02-08T20:32:22.043Z,59.60
2018-02-08T20:34:49.762Z,57.77
2018-02-08T20:37:18.105Z,56.10
2018-02-08T20:39:45.661Z,61.33
2018-02-08T20:42:18.882Z,63.33
2018-02-08T20:44:46.378Z,65.17
2018-02-08T20:47:14.669Z,67.00
2018-02-08T20:49:47.941Z,65.67
2018-02-08T20:52:15.467Z,69.40
2018-02-08T20:54:42.997Z,66.57
2018-02-08T20:57:11.294Z,69.47
2018-02-08T20:59:38.820Z,56.87
2018-02-08T21:02:06.371Z,60.50
2018-02-08T21:04:33.886Z,65.93
2018-02-08T21:07:01.408Z,62.97
2018-02-08T21:09:28.935Z,67.60
2018-02-08T21:11:56.458Z,70.63
2018-02-08T21:14:24.093Z,71.63
2018-02-08T21:16:51.717Z,67.10
2018-02-08T21:19:19.253Z,69.70
2018-02-08T21:21:46.806Z,67.40
2018-02-08T21:24:15.112Z,64.30
2018-02-08T21:26:42.626Z,59.33
2018-02-08T21:29:10.147Z,57.10
2018-02-08T21:31:37.743Z,59.73
2018-02-08T21:34:05.431Z,60.00
2018-02-08T21:36:33.059Z,64.03
2018-02-08T21:39:00.596Z,58.87
2018-02-08T21:41:28.139Z,64.10
2018-02-08T21:43:55.873Z,61.27
2018-02-08T21:46:23.523Z,60.70
2018-02-08T21:48:51.906Z,60.13
2018-02-08T21:51:20.270Z,65.13
2018-02-08T21:53:47.860Z,64.00
2018-02-08T21:56:15.396Z,64.57
2018-02-08T21:58:43.717Z,62.40
2018-02-08T22:01:11.264Z,64.97
2018-02-08T22:03:38.822Z,64.63
2018-02-08T22:06:06.348Z,59.17
2018-02-08T22:08:33.967Z,63.97
2018-02-08T22:11:01.471Z,67.67
2018-02-08T22:13:29.727Z,64.43
2018-02-08T22:15:59.181Z,64.40
2018-02-08T22:18:26.824Z,65.37
2018-02-08T22:20:54.343Z,61.33
2018-02-08T22:23:21.881Z,58.57
2018-02-08T22:25:49.583Z,59.57
2018-02-08T22:28:17.111Z,59.20
2018-02-08T22:30:44.875Z,61.40
2018-02-08T22:33:12.393Z,58.00
2018-02-08T22:35:39.914Z,55.87
2018-02-08T22:38:07.458Z,61.40
2018-02-08T22:40:34.983Z,59.83
2018-02-08T22:43:02.643Z,62.27
2018-02-08T22:45:30.141Z,67.73
2018-02-08T22:47:57.651Z,60.93
2018-02-08T22:50:25.172Z,64.23
2018-02-08T22:52:52.887Z,63.90
2018-02-08T22:55:20.389Z,66.37
2018-02-08T22:57:47.914Z,56.17
2018-02-08T23:00:15.432Z,64.63
2018-02-08T23:02:42.963Z,71.57
2018-02-08T23:05:10.615Z,67.90
2018-02-08T23:07:38.923Z,62.67
2018-02-08T23:10:07.206Z,64.23
2018-02-08T23:12:34.772Z,58.17
2018-02-08T23:15:02.305Z,65.60
2018-02-08T23:17:30.586Z,60.80
2018-02-08T23:19:58.862Z,73.43
2018-02-08T23:22:27.173Z,72.47
2018-02-08T23:24:54.678Z,74.77
2018-02-08T23:27:22.211Z,78.83
2018-02-08T23:29:49.718Z,78.23
2018-02-08T23:32:18.001Z,79.63
2018-02-08T23:34:45.508Z,71.40
2018-02-08T23:37:13.007Z,68.23
2018-02-08T23:39:41.290Z,77.77
2018-02-08T23:42:09.674Z,72.90
2018-02-08T23:44:37.295Z,75.37
2018-02-08T23:47:04.814Z,77.60
2018-02-08T23:49:32.322Z,77.90
2018-02-08T23:51:59.834Z,76.80
2018-02-08T23:54:27.358Z,72.83
2018-02-08T23:56:54.857Z,79.07
2018-02-08T23:59:22.386Z,78.87
